sensor_id;sensor_type;location;lat;lon;timestamp;P1;durP1;ratioP1;P2;durP2;ratioP2
17133;SDS011;8682;52.120;5.252;2023-01-31T00:00:24;1266.40;;;622.60;;
17133;SDS011;8682;52.120;5.252;2023-01-31T00:02:51;1181.47;;;600.33;;
17133;SDS011;8682;52.120;5.252;2023-01-31T00:05:18;836.43;;;404.63;;
17133;SDS011;8682;52.120;5.252;2023-01-31T00:07:47;1265.67;;;613.67;;
17133;SDS011;8682;52.120;5.252;2023-01-31T00:10:14;1208.00;;;620.53;;
17133;SDS011;8682;52.120;5.252;2023-01-31T00:12:41;1235.13;;;628.93;;
17133;SDS011;8682;52.120;5.252;2023-01-31T00:15:08;1245.20;;;621.73;;
17133;SDS011;8682;52.120;5.252;2023-01-31T00:17:37;1222.83;;;626.17;;
17133;SDS011;8682;52.120;5.252;2023-01-31T00:20:05;1197.20;;;603.30;;
17133;SDS011;8682;52.120;5.252;2023-01-31T00:22:32;1999.90;;;999.90;;
17133;SDS011;8682;52.120;5.252;2023-01-31T00:25:01;1288.67;;;628.83;;
17133;SDS011;8682;52.120;5.252;2023-01-31T00:27:28;689.37;;;379.40;;
17133;SDS011;8682;52.120;5.252;2023-01-31T00:29:55;1207.57;;;608.53;;
17133;SDS011;8682;52.120;5.252;2023-01-31T00:32:22;1154.50;;;583.03;;
17133;SDS011;8682;52.120;5.252;2023-01-31T00:34:50;1240.47;;;612.17;;
17133;SDS011;8682;52.120;5.252;2023-01-31T00:37:18;761.13;;;402.87;;
17133;SDS011;8682;52.120;5.252;2023-01-31T00:39:45;1180.20;;;599.13;;
17133;SDS011;8682;52.120;5.252;2023-01-31T00:42:14;1190.63;;;593.90;;
17133;SDS011;8682;52.120;5.252;2023-01-31T00:44:41;1109.70;;;554.33;;
17133;SDS011;8682;52.120;5.252;2023-01-31T00:47:08;1236.07;;;619.63;;
17133;SDS011;8682;52.120;5.252;2023-01-31T00:49:35;1229.93;;;611.23;;
17133;SDS011;8682;52.120;5.252;2023-01-31T00:52:03;1183.60;;;614.10;;
17133;SDS011;8682;52.120;5.252;2023-01-31T00:54:30;718.13;;;354.20;;
17133;SDS011;8682;52.120;5.252;2023-01-31T00:56:57;629.00;;;320.03;;
17133;SDS011;8682;52.120;5.252;2023-01-31T00:59:26;793.30;;;438.77;;
17133;SDS011;8682;52.120;5.252;2023-01-31T01:01:53;1094.10;;;559.07;;
17133;SDS011;8682;52.120;5.252;2023-01-31T01:04:20;643.87;;;338.70;;
17133;SDS011;8682;52.120;5.252;2023-01-31T01:06:47;549.60;;;328.20;;
17133;SDS011;8682;52.120;5.252;2023-01-31T01:09:15;546.00;;;309.20;;
17133;SDS011;8682;52.120;5.252;2023-01-31T01:11:42;535.27;;;288.70;;
17133;SDS011;8682;52.120;5.252;2023-01-31T01:14:09;983.37;;;519.60;;
17133;SDS011;8682;52.120;5.252;2023-01-31T01:16:38;523.40;;;282.83;;
17133;SDS011;8682;52.120;5.252;2023-01-31T01:19:06;422.23;;;259.57;;
17133;SDS011;8682;52.120;5.252;2023-01-31T01:21:34;473.53;;;296.00;;
17133;SDS011;8682;52.120;5.252;2023-01-31T01:24:03;432.60;;;245.80;;
17133;SDS011;8682;52.120;5.252;2023-01-31T01:26:31;454.07;;;262.43;;
17133;SDS011;8682;52.120;5.252;2023-01-31T01:28:59;549.43;;;299.70;;
17133;SDS011;8682;52.120;5.252;2023-01-31T01:31:27;600.43;;;327.43;;
17133;SDS011;8682;52.120;5.252;2023-01-31T01:33:56;671.43;;;362.07;;
17133;SDS011;8682;52.120;5.252;2023-01-31T01:36:24;674.83;;;361.23;;
17133;SDS011;8682;52.120;5.252;2023-01-31T01:38:51;1125.07;;;562.07;;
17133;SDS011;8682;52.120;5.252;2023-01-31T01:41:19;769.17;;;370.37;;
17133;SDS011;8682;52.120;5.252;2023-01-31T01:43:47;1167.83;;;580.33;;
17133;SDS011;8682;52.120;5.252;2023-01-31T01:46:16;889.50;;;401.07;;
17133;SDS011;8682;52.120;5.252;2023-01-31T01:48:45;730.67;;;384.47;;
17133;SDS011;8682;52.120;5.252;2023-01-31T01:51:15;758.47;;;365.23;;
17133;SDS011;8682;52.120;5.252;2023-01-31T01:53:44;1122.20;;;577.37;;
17133;SDS011;8682;52.120;5.252;2023-01-31T01:56:14;1999.90;;;999.90;;
17133;SDS011;8682;52.120;5.252;2023-01-31T01:58:43;858.67;;;389.40;;
17133;SDS011;8682;52.120;5.252;2023-01-31T02:01:12;1280.27;;;611.67;;
17133;SDS011;8682;52.120;5.252;2023-01-31T02:03:41;841.20;;;379.27;;
17133;SDS011;8682;52.120;5.252;2023-01-31T02:06:09;1999.90;;;999.90;;
17133;SDS011;8682;52.120;5.252;2023-01-31T02:08:38;1999.90;;;999.90;;
17133;SDS011;8682;52.120;5.252;2023-01-31T02:11:07;1999.90;;;999.90;;
17133;SDS011;8682;52.120;5.252;2023-01-31T02:13:36;1999.90;;;999.90;;
17133;SDS011;8682;52.120;5.252;2023-01-31T02:16:04;1262.50;;;594.50;;
17133;SDS011;8682;52.120;5.252;2023-01-31T02:18:31;1999.90;;;999.90;;
17133;SDS011;8682;52.120;5.252;2023-01-31T02:23:52;1999.90;;;999.90;;
17133;SDS011;8682;52.120;5.252;2023-01-31T02:26:29;1999.90;;;999.90;;
17133;SDS011;8682;52.120;5.252;2023-01-31T02:29:12;1999.90;;;999.90;;
17133;SDS011;8682;52.120;5.252;2023-01-31T02:31:55;1999.90;;;999.90;;
17133;SDS011;8682;52.120;5.252;2023-01-31T02:34:28;1999.90;;;999.90;;
17133;SDS011;8682;52.120;5.252;2023-01-31T02:37:01;1999.90;;;999.90;;
17133;SDS011;8682;52.120;5.252;2023-01-31T02:39:34;1999.90;;;999.90;;
17133;SDS011;8682;52.120;5.252;2023-01-31T02:42:05;1999.90;;;999.90;;
17133;SDS011;8682;52.120;5.252;2023-01-31T02:44:35;1999.90;;;999.90;;
17133;SDS011;8682;52.120;5.252;2023-01-31T02:47:23;1999.90;;;999.90;;
17133;SDS011;8682;52.120;5.252;2023-01-31T02:49:55;1999.90;;;999.90;;
17133;SDS011;8682;52.120;5.252;2023-01-31T02:52:25;1999.90;;;999.90;;
17133;SDS011;8682;52.120;5.252;2023-01-31T02:54:56;1999.90;;;999.90;;
17133;SDS011;8682;52.120;5.252;2023-01-31T02:57:43;1999.90;;;999.90;;
17133;SDS011;8682;52.120;5.252;2023-01-31T03:00:11;1999.90;;;999.90;;
17133;SDS011;8682;52.120;5.252;2023-01-31T03:02:39;1999.90;;;999.90;;
17133;SDS011;8682;52.120;5.252;2023-01-31T03:05:09;1999.90;;;999.90;;
17133;SDS011;8682;52.120;5.252;2023-01-31T03:07:38;1999.90;;;999.90;;
17133;SDS011;8682;52.120;5.252;2023-01-31T03:10:12;1999.90;;;999.90;;
17133;SDS011;8682;52.120;5.252;2023-01-31T03:12:45;1999.90;;;999.90;;
17133;SDS011;8682;52.120;5.252;2023-01-31T03:15:21;1999.90;;;999.90;;
17133;SDS011;8682;52.120;5.252;2023-01-31T03:17:54;1999.90;;;999.90;;
17133;SDS011;8682;52.120;5.252;2023-01-31T03:20:26;1999.90;;;999.90;;
17133;SDS011;8682;52.120;5.252;2023-01-31T03:22:56;1999.90;;;999.90;;
17133;SDS011;8682;52.120;5.252;2023-01-31T03:25:25;1999.90;;;999.90;;
17133;SDS011;8682;52.120;5.252;2023-01-31T03:27:54;1999.90;;;999.90;;
17133;SDS011;8682;52.120;5.252;2023-01-31T03:30:22;1999.90;;;999.90;;
17133;SDS011;8682;52.120;5.252;2023-01-31T03:32:52;1999.90;;;999.90;;
17133;SDS011;8682;52.120;5.252;2023-01-31T03:35:20;1999.90;;;999.90;;
17133;SDS011;8682;52.120;5.252;2023-01-31T03:37:51;1999.90;;;999.90;;
17133;SDS011;8682;52.120;5.252;2023-01-31T03:40:23;1999.90;;;999.90;;
17133;SDS011;8682;52.120;5.252;2023-01-31T03:42:52;1999.90;;;999.90;;
17133;SDS011;8682;52.120;5.252;2023-01-31T03:45:22;1999.90;;;999.90;;
17133;SDS011;8682;52.120;5.252;2023-01-31T03:47:52;1999.90;;;999.90;;
17133;SDS011;8682;52.120;5.252;2023-01-31T03:50:21;1999.90;;;999.90;;
17133;SDS011;8682;52.120;5.252;2023-01-31T03:52:50;1999.90;;;999.90;;
17133;SDS011;8682;52.120;5.252;2023-01-31T03:55:20;1999.90;;;999.90;;
17133;SDS011;8682;52.120;5.252;2023-01-31T03:57:49;1999.90;;;999.90;;
17133;SDS011;8682;52.120;5.252;2023-01-31T04:00:18;1999.90;;;999.90;;
17133;SDS011;8682;52.120;5.252;2023-01-31T04:02:47;1999.90;;;999.90;;
17133;SDS011;8682;52.120;5.252;2023-01-31T04:05:15;1999.90;;;999.90;;
17133;SDS011;8682;52.120;5.252;2023-01-31T04:07:43;1999.90;;;999.90;;
17133;SDS011;8682;52.120;5.252;2023-01-31T04:10:13;1999.90;;;999.90;;
17133;SDS011;8682;52.120;5.252;2023-01-31T04:12:41;1999.90;;;999.90;;
17133;SDS011;8682;52.120;5.252;2023-01-31T04:15:08;1999.90;;;999.90;;
17133;SDS011;8682;52.120;5.252;2023-01-31T04:17:36;1999.90;;;999.90;;
17133;SDS011;8682;52.120;5.252;2023-01-31T04:20:03;1999.90;;;999.90;;
17133;SDS011;8682;52.120;5.252;2023-01-31T04:22:31;1999.90;;;999.90;;
17133;SDS011;8682;52.120;5.252;2023-01-31T04:24:58;1999.90;;;999.90;;
17133;SDS011;8682;52.120;5.252;2023-01-31T04:27:26;1999.90;;;999.90;;
17133;SDS011;8682;52.120;5.252;2023-01-31T04:29:53;1999.90;;;999.90;;
17133;SDS011;8682;52.120;5.252;2023-01-31T04:32:21;1999.90;;;999.90;;
17133;SDS011;8682;52.120;5.252;2023-01-31T04:34:48;1999.90;;;999.90;;
17133;SDS011;8682;52.120;5.252;2023-01-31T04:37:15;1999.90;;;999.90;;
17133;SDS011;8682;52.120;5.252;2023-01-31T04:39:42;1999.90;;;999.90;;
17133;SDS011;8682;52.120;5.252;2023-01-31T04:42:09;1999.90;;;999.90;;
17133;SDS011;8682;52.120;5.252;2023-01-31T04:44:38;1999.90;;;999.90;;
17133;SDS011;8682;52.120;5.252;2023-01-31T04:47:05;1999.90;;;999.90;;
17133;SDS011;8682;52.120;5.252;2023-01-31T04:49:32;1999.90;;;999.90;;
17133;SDS011;8682;52.120;5.252;2023-01-31T04:51:59;1999.90;;;999.90;;
17133;SDS011;8682;52.120;5.252;2023-01-31T04:54:26;1999.90;;;999.90;;
17133;SDS011;8682;52.120;5.252;2023-01-31T04:56:53;1999.90;;;999.90;;
17133;SDS011;8682;52.120;5.252;2023-01-31T04:59:21;1999.90;;;999.90;;
17133;SDS011;8682;52.120;5.252;2023-01-31T05:01:49;1999.90;;;999.90;;
17133;SDS011;8682;52.120;5.252;2023-01-31T05:04:16;1999.90;;;999.90;;
17133;SDS011;8682;52.120;5.252;2023-01-31T05:06:43;1999.90;;;999.90;;
17133;SDS011;8682;52.120;5.252;2023-01-31T05:09:10;1999.90;;;999.90;;
17133;SDS011;8682;52.120;5.252;2023-01-31T05:11:38;1999.90;;;999.90;;
17133;SDS011;8682;52.120;5.252;2023-01-31T05:14:05;1999.90;;;999.90;;
17133;SDS011;8682;52.120;5.252;2023-01-31T05:16:32;1999.90;;;999.90;;
17133;SDS011;8682;52.120;5.252;2023-01-31T05:19:01;1999.90;;;999.90;;
17133;SDS011;8682;52.120;5.252;2023-01-31T05:21:28;1999.90;;;999.90;;
17133;SDS011;8682;52.120;5.252;2023-01-31T05:24:15;1999.90;;;999.90;;
17133;SDS011;8682;52.120;5.252;2023-01-31T05:26:44;1999.90;;;999.90;;
17133;SDS011;8682;52.120;5.252;2023-01-31T05:29:11;1999.90;;;999.90;;
17133;SDS011;8682;52.120;5.252;2023-01-31T05:31:38;1999.90;;;999.90;;
17133;SDS011;8682;52.120;5.252;2023-01-31T05:34:07;1999.90;;;999.90;;
17133;SDS011;8682;52.120;5.252;2023-01-31T05:36:35;1999.90;;;999.90;;
17133;SDS011;8682;52.120;5.252;2023-01-31T05:39:03;1999.90;;;999.90;;
17133;SDS011;8682;52.120;5.252;2023-01-31T05:41:30;1999.90;;;999.90;;
17133;SDS011;8682;52.120;5.252;2023-01-31T05:43:57;1999.90;;;999.90;;
17133;SDS011;8682;52.120;5.252;2023-01-31T05:46:24;1999.90;;;999.90;;
17133;SDS011;8682;52.120;5.252;2023-01-31T05:48:52;1999.90;;;999.90;;
17133;SDS011;8682;52.120;5.252;2023-01-31T05:51:21;1999.90;;;999.90;;
17133;SDS011;8682;52.120;5.252;2023-01-31T05:53:48;1999.90;;;999.90;;
17133;SDS011;8682;52.120;5.252;2023-01-31T05:56:16;1999.90;;;999.90;;
17133;SDS011;8682;52.120;5.252;2023-01-31T05:58:43;1999.90;;;999.90;;
17133;SDS011;8682;52.120;5.252;2023-01-31T06:01:14;1999.90;;;999.90;;
17133;SDS011;8682;52.120;5.252;2023-01-31T06:03:41;1999.90;;;999.90;;
17133;SDS011;8682;52.120;5.252;2023-01-31T06:06:08;1999.90;;;999.90;;
17133;SDS011;8682;52.120;5.252;2023-01-31T06:08:37;1999.90;;;999.90;;
17133;SDS011;8682;52.120;5.252;2023-01-31T06:11:04;1999.90;;;999.90;;
17133;SDS011;8682;52.120;5.252;2023-01-31T06:13:31;1999.90;;;999.90;;
17133;SDS011;8682;52.120;5.252;2023-01-31T06:15:58;1999.90;;;999.90;;
17133;SDS011;8682;52.120;5.252;2023-01-31T06:18:25;1999.90;;;999.90;;
17133;SDS011;8682;52.120;5.252;2023-01-31T06:20:53;1999.90;;;999.90;;
17133;SDS011;8682;52.120;5.252;2023-01-31T06:23:20;1999.90;;;999.90;;
17133;SDS011;8682;52.120;5.252;2023-01-31T06:25:49;1999.90;;;999.90;;
17133;SDS011;8682;52.120;5.252;2023-01-31T06:28:16;1999.90;;;999.90;;
17133;SDS011;8682;52.120;5.252;2023-01-31T06:30:44;1999.90;;;999.90;;
17133;SDS011;8682;52.120;5.252;2023-01-31T06:33:11;1999.90;;;999.90;;
17133;SDS011;8682;52.120;5.252;2023-01-31T06:35:39;1999.90;;;999.90;;
17133;SDS011;8682;52.120;5.252;2023-01-31T06:38:06;1999.90;;;999.90;;
17133;SDS011;8682;52.120;5.252;2023-01-31T06:40:36;1999.90;;;999.90;;
17133;SDS011;8682;52.120;5.252;2023-01-31T06:43:04;1999.90;;;999.90;;
17133;SDS011;8682;52.120;5.252;2023-01-31T06:45:32;1999.90;;;999.90;;
17133;SDS011;8682;52.120;5.252;2023-01-31T06:47:59;1999.90;;;999.90;;
17133;SDS011;8682;52.120;5.252;2023-01-31T06:50:26;1999.90;;;999.90;;
17133;SDS011;8682;52.120;5.252;2023-01-31T06:52:53;1999.90;;;999.90;;
17133;SDS011;8682;52.120;5.252;2023-01-31T06:55:20;1999.90;;;999.90;;
17133;SDS011;8682;52.120;5.252;2023-01-31T06:57:48;1999.90;;;999.90;;
17133;SDS011;8682;52.120;5.252;2023-01-31T07:00:17;1999.90;;;999.90;;
17133;SDS011;8682;52.120;5.252;2023-01-31T07:02:44;1999.90;;;999.90;;
17133;SDS011;8682;52.120;5.252;2023-01-31T07:05:11;1999.90;;;999.90;;
17133;SDS011;8682;52.120;5.252;2023-01-31T07:07:39;1999.90;;;999.90;;
17133;SDS011;8682;52.120;5.252;2023-01-31T07:10:06;1999.90;;;999.90;;
17133;SDS011;8682;52.120;5.252;2023-01-31T07:12:34;1999.90;;;999.90;;
17133;SDS011;8682;52.120;5.252;2023-01-31T07:15:01;1999.90;;;999.90;;
17133;SDS011;8682;52.120;5.252;2023-01-31T07:17:29;1999.90;;;999.90;;
17133;SDS011;8682;52.120;5.252;2023-01-31T07:19:57;1999.90;;;999.90;;
17133;SDS011;8682;52.120;5.252;2023-01-31T07:22:24;1999.90;;;999.90;;
17133;SDS011;8682;52.120;5.252;2023-01-31T07:24:51;1999.90;;;999.90;;
17133;SDS011;8682;52.120;5.252;2023-01-31T07:27:18;1999.90;;;999.90;;
17133;SDS011;8682;52.120;5.252;2023-01-31T07:29:45;1999.90;;;999.90;;
17133;SDS011;8682;52.120;5.252;2023-01-31T07:32:13;1999.90;;;999.90;;
17133;SDS011;8682;52.120;5.252;2023-01-31T07:34:41;1999.90;;;999.90;;
17133;SDS011;8682;52.120;5.252;2023-01-31T07:37:08;1999.90;;;999.90;;
17133;SDS011;8682;52.120;5.252;2023-01-31T07:39:35;1999.90;;;999.90;;
17133;SDS011;8682;52.120;5.252;2023-01-31T07:42:03;1999.90;;;999.90;;
17133;SDS011;8682;52.120;5.252;2023-01-31T07:44:30;1999.90;;;999.90;;
17133;SDS011;8682;52.120;5.252;2023-01-31T07:46:57;1999.90;;;999.90;;
17133;SDS011;8682;52.120;5.252;2023-01-31T07:49:24;1999.90;;;999.90;;
17133;SDS011;8682;52.120;5.252;2023-01-31T07:51:53;1999.90;;;999.90;;
17133;SDS011;8682;52.120;5.252;2023-01-31T07:54:20;1999.90;;;999.90;;
17133;SDS011;8682;52.120;5.252;2023-01-31T07:56:47;1999.90;;;999.90;;
17133;SDS011;8682;52.120;5.252;2023-01-31T07:59:14;1999.90;;;999.90;;
17133;SDS011;8682;52.120;5.252;2023-01-31T08:01:41;1999.90;;;999.90;;
17133;SDS011;8682;52.120;5.252;2023-01-31T08:04:26;1999.90;;;999.90;;
17133;SDS011;8682;52.120;5.252;2023-01-31T08:06:55;1999.90;;;999.90;;
17133;SDS011;8682;52.120;5.252;2023-01-31T08:09:23;1999.90;;;999.90;;
17133;SDS011;8682;52.120;5.252;2023-01-31T08:11:50;1999.90;;;999.90;;
17133;SDS011;8682;52.120;5.252;2023-01-31T08:14:18;1999.90;;;999.90;;
17133;SDS011;8682;52.120;5.252;2023-01-31T08:16:49;1999.90;;;999.90;;
17133;SDS011;8682;52.120;5.252;2023-01-31T08:19:16;1999.90;;;999.90;;
17133;SDS011;8682;52.120;5.252;2023-01-31T08:21:43;1999.90;;;999.90;;
17133;SDS011;8682;52.120;5.252;2023-01-31T08:24:12;1999.90;;;999.90;;
17133;SDS011;8682;52.120;5.252;2023-01-31T08:26:40;1999.90;;;999.90;;
17133;SDS011;8682;52.120;5.252;2023-01-31T08:29:08;1999.90;;;999.90;;
17133;SDS011;8682;52.120;5.252;2023-01-31T08:31:35;1999.90;;;999.90;;
17133;SDS011;8682;52.120;5.252;2023-01-31T08:34:02;1999.90;;;999.90;;
17133;SDS011;8682;52.120;5.252;2023-01-31T08:36:29;1999.90;;;999.90;;
17133;SDS011;8682;52.120;5.252;2023-01-31T08:38:57;1999.90;;;999.90;;
17133;SDS011;8682;52.120;5.252;2023-01-31T08:41:26;1999.90;;;999.90;;
17133;SDS011;8682;52.120;5.252;2023-01-31T08:43:54;1999.90;;;999.90;;
17133;SDS011;8682;52.120;5.252;2023-01-31T08:46:22;1999.90;;;999.90;;
17133;SDS011;8682;52.120;5.252;2023-01-31T08:48:49;1999.90;;;999.90;;
17133;SDS011;8682;52.120;5.252;2023-01-31T08:51:17;1999.90;;;999.90;;
17133;SDS011;8682;52.120;5.252;2023-01-31T08:53:44;1999.90;;;999.90;;
17133;SDS011;8682;52.120;5.252;2023-01-31T08:56:11;1999.90;;;999.90;;
17133;SDS011;8682;52.120;5.252;2023-01-31T08:58:41;1999.90;;;999.90;;
17133;SDS011;8682;52.120;5.252;2023-01-31T09:01:09;1999.90;;;999.90;;
17133;SDS011;8682;52.120;5.252;2023-01-31T09:03:37;1999.90;;;999.90;;
17133;SDS011;8682;52.120;5.252;2023-01-31T09:06:05;1999.90;;;999.90;;
17133;SDS011;8682;52.120;5.252;2023-01-31T09:08:32;1999.90;;;999.90;;
17133;SDS011;8682;52.120;5.252;2023-01-31T09:11:00;1999.90;;;999.90;;
17133;SDS011;8682;52.120;5.252;2023-01-31T09:13:27;1999.90;;;999.90;;
17133;SDS011;8682;52.120;5.252;2023-01-31T09:15:59;1999.90;;;999.90;;
17133;SDS011;8682;52.120;5.252;2023-01-31T09:18:27;1999.90;;;999.90;;
17133;SDS011;8682;52.120;5.252;2023-01-31T09:20:54;1999.90;;;999.90;;
17133;SDS011;8682;52.120;5.252;2023-01-31T09:23:21;1999.90;;;999.90;;
17133;SDS011;8682;52.120;5.252;2023-01-31T09:25:52;1999.90;;;999.90;;
17133;SDS011;8682;52.120;5.252;2023-01-31T09:28:19;1999.90;;;999.90;;
17133;SDS011;8682;52.120;5.252;2023-01-31T09:30:47;1999.90;;;999.90;;
17133;SDS011;8682;52.120;5.252;2023-01-31T09:33:16;1999.90;;;999.90;;
17133;SDS011;8682;52.120;5.252;2023-01-31T09:35:43;1999.90;;;999.90;;
17133;SDS011;8682;52.120;5.252;2023-01-31T09:38:20;1999.90;;;999.90;;
17133;SDS011;8682;52.120;5.252;2023-01-31T09:40:48;1999.90;;;999.90;;
17133;SDS011;8682;52.120;5.252;2023-01-31T09:43:15;1999.90;;;999.90;;
17133;SDS011;8682;52.120;5.252;2023-01-31T09:45:43;1999.90;;;999.90;;
17133;SDS011;8682;52.120;5.252;2023-01-31T09:48:14;1999.90;;;999.90;;
17133;SDS011;8682;52.120;5.252;2023-01-31T09:50:46;1999.90;;;999.90;;
17133;SDS011;8682;52.120;5.252;2023-01-31T09:53:16;1999.90;;;999.90;;
17133;SDS011;8682;52.120;5.252;2023-01-31T09:55:47;1999.90;;;999.90;;
17133;SDS011;8682;52.120;5.252;2023-01-31T09:58:19;1999.90;;;999.90;;
17133;SDS011;8682;52.120;5.252;2023-01-31T10:00:53;1999.90;;;999.90;;
17133;SDS011;8682;52.120;5.252;2023-01-31T10:03:27;1999.90;;;999.90;;
17133;SDS011;8682;52.120;5.252;2023-01-31T10:06:01;1999.90;;;999.90;;
17133;SDS011;8682;52.120;5.252;2023-01-31T10:08:35;1999.90;;;999.90;;
17133;SDS011;8682;52.120;5.252;2023-01-31T10:11:05;1999.90;;;999.90;;
17133;SDS011;8682;52.120;5.252;2023-01-31T10:13:37;1999.90;;;999.90;;
17133;SDS011;8682;52.120;5.252;2023-01-31T10:16:08;1999.90;;;999.90;;
17133;SDS011;8682;52.120;5.252;2023-01-31T10:18:40;1999.90;;;999.90;;
17133;SDS011;8682;52.120;5.252;2023-01-31T10:21:10;1999.90;;;999.90;;
17133;SDS011;8682;52.120;5.252;2023-01-31T10:23:40;1999.90;;;999.90;;
17133;SDS011;8682;52.120;5.252;2023-01-31T10:26:08;1999.90;;;999.90;;
17133;SDS011;8682;52.120;5.252;2023-01-31T10:28:37;1999.90;;;999.90;;
17133;SDS011;8682;52.120;5.252;2023-01-31T10:31:09;1999.90;;;999.90;;
17133;SDS011;8682;52.120;5.252;2023-01-31T10:33:38;1999.90;;;999.90;;
17133;SDS011;8682;52.120;5.252;2023-01-31T10:36:13;1999.90;;;999.90;;
17133;SDS011;8682;52.120;5.252;2023-01-31T10:38:45;1999.90;;;999.90;;
17133;SDS011;8682;52.120;5.252;2023-01-31T10:41:14;1999.90;;;999.90;;
17133;SDS011;8682;52.120;5.252;2023-01-31T10:43:45;1999.90;;;999.90;;
17133;SDS011;8682;52.120;5.252;2023-01-31T10:46:13;1999.90;;;999.90;;
17133;SDS011;8682;52.120;5.252;2023-01-31T10:48:41;1999.90;;;999.90;;
17133;SDS011;8682;52.120;5.252;2023-01-31T10:51:13;1999.90;;;999.90;;
17133;SDS011;8682;52.120;5.252;2023-01-31T10:53:50;1999.90;;;999.90;;
17133;SDS011;8682;52.120;5.252;2023-01-31T10:56:21;1999.90;;;999.90;;
17133;SDS011;8682;52.120;5.252;2023-01-31T10:58:51;1999.90;;;999.90;;
17133;SDS011;8682;52.120;5.252;2023-01-31T11:01:18;1999.90;;;999.90;;
17133;SDS011;8682;52.120;5.252;2023-01-31T11:03:46;1999.90;;;999.90;;
17133;SDS011;8682;52.120;5.252;2023-01-31T11:06:15;1999.90;;;999.90;;
17133;SDS011;8682;52.120;5.252;2023-01-31T11:08:44;1999.90;;;999.90;;
17133;SDS011;8682;52.120;5.252;2023-01-31T11:11:12;1999.90;;;999.90;;
17133;SDS011;8682;52.120;5.252;2023-01-31T11:13:42;1999.90;;;999.90;;
17133;SDS011;8682;52.120;5.252;2023-01-31T11:16:20;1999.90;;;999.90;;
17133;SDS011;8682;52.120;5.252;2023-01-31T11:18:48;1999.90;;;999.90;;
17133;SDS011;8682;52.120;5.252;2023-01-31T11:21:19;1999.90;;;999.90;;
17133;SDS011;8682;52.120;5.252;2023-01-31T11:23:47;1999.90;;;999.90;;
17133;SDS011;8682;52.120;5.252;2023-01-31T11:26:23;1999.90;;;999.90;;
17133;SDS011;8682;52.120;5.252;2023-01-31T11:28:51;1999.90;;;999.90;;
17133;SDS011;8682;52.120;5.252;2023-01-31T11:31:18;1999.90;;;999.90;;
17133;SDS011;8682;52.120;5.252;2023-01-31T11:33:54;1999.90;;;999.90;;
17133;SDS011;8682;52.120;5.252;2023-01-31T11:36:23;1999.90;;;999.90;;
17133;SDS011;8682;52.120;5.252;2023-01-31T11:38:50;1999.90;;;999.90;;
17133;SDS011;8682;52.120;5.252;2023-01-31T11:41:28;1999.90;;;999.90;;
17133;SDS011;8682;52.120;5.252;2023-01-31T11:44:05;1999.90;;;999.90;;
17133;SDS011;8682;52.120;5.252;2023-01-31T11:46:36;1999.90;;;999.90;;
17133;SDS011;8682;52.120;5.252;2023-01-31T11:49:09;1999.90;;;999.90;;
17133;SDS011;8682;52.120;5.252;2023-01-31T11:51:37;1999.90;;;999.90;;
17133;SDS011;8682;52.120;5.252;2023-01-31T11:54:05;1999.90;;;999.90;;
17133;SDS011;8682;52.120;5.252;2023-01-31T11:56:33;1999.90;;;999.90;;
17133;SDS011;8682;52.120;5.252;2023-01-31T11:59:02;1999.90;;;999.90;;
17133;SDS011;8682;52.120;5.252;2023-01-31T12:01:31;1999.90;;;999.90;;
17133;SDS011;8682;52.120;5.252;2023-01-31T12:03:59;1999.90;;;999.90;;
17133;SDS011;8682;52.120;5.252;2023-01-31T12:06:28;1999.90;;;999.90;;
17133;SDS011;8682;52.120;5.252;2023-01-31T12:08:58;1999.90;;;999.90;;
17133;SDS011;8682;52.120;5.252;2023-01-31T12:11:27;1999.90;;;999.90;;
17133;SDS011;8682;52.120;5.252;2023-01-31T12:13:59;1999.90;;;999.90;;
17133;SDS011;8682;52.120;5.252;2023-01-31T12:16:27;1999.90;;;999.90;;
17133;SDS011;8682;52.120;5.252;2023-01-31T12:18:59;1999.90;;;999.90;;
17133;SDS011;8682;52.120;5.252;2023-01-31T12:21:42;1999.90;;;999.90;;
17133;SDS011;8682;52.120;5.252;2023-01-31T12:24:17;1999.90;;;999.90;;
17133;SDS011;8682;52.120;5.252;2023-01-31T12:26:49;1999.90;;;999.90;;
17133;SDS011;8682;52.120;5.252;2023-01-31T12:29:21;1999.90;;;999.90;;
17133;SDS011;8682;52.120;5.252;2023-01-31T12:31:55;1999.90;;;999.90;;
17133;SDS011;8682;52.120;5.252;2023-01-31T12:34:30;1999.90;;;999.90;;
17133;SDS011;8682;52.120;5.252;2023-01-31T12:39:49;1999.90;;;999.90;;
17133;SDS011;8682;52.120;5.252;2023-01-31T12:42:32;1999.90;;;999.90;;
17133;SDS011;8682;52.120;5.252;2023-01-31T12:45:07;1999.90;;;999.90;;
17133;SDS011;8682;52.120;5.252;2023-01-31T12:47:46;1999.90;;;999.90;;
17133;SDS011;8682;52.120;5.252;2023-01-31T12:50:23;1999.90;;;999.90;;
17133;SDS011;8682;52.120;5.252;2023-01-31T12:52:55;1999.90;;;999.90;;
17133;SDS011;8682;52.120;5.252;2023-01-31T12:55:31;1999.90;;;999.90;;
17133;SDS011;8682;52.120;5.252;2023-01-31T12:58:14;1999.90;;;999.90;;
17133;SDS011;8682;52.120;5.252;2023-01-31T13:00:47;1999.90;;;999.90;;
17133;SDS011;8682;52.120;5.252;2023-01-31T13:03:24;1999.90;;;999.90;;
17133;SDS011;8682;52.120;5.252;2023-01-31T13:05:55;1999.90;;;999.90;;
17133;SDS011;8682;52.120;5.252;2023-01-31T13:08:23;1999.90;;;999.90;;
17133;SDS011;8682;52.120;5.252;2023-01-31T13:10:53;1999.90;;;999.90;;
17133;SDS011;8682;52.120;5.252;2023-01-31T13:13:24;1999.90;;;999.90;;
17133;SDS011;8682;52.120;5.252;2023-01-31T13:15:53;1999.90;;;999.90;;
17133;SDS011;8682;52.120;5.252;2023-01-31T13:18:21;1999.90;;;999.90;;
17133;SDS011;8682;52.120;5.252;2023-01-31T13:20:50;1999.90;;;999.90;;
17133;SDS011;8682;52.120;5.252;2023-01-31T13:23:18;1999.90;;;999.90;;
17133;SDS011;8682;52.120;5.252;2023-01-31T13:25:48;1999.90;;;999.90;;
17133;SDS011;8682;52.120;5.252;2023-01-31T13:28:18;1999.90;;;999.90;;
17133;SDS011;8682;52.120;5.252;2023-01-31T13:30:49;1999.90;;;999.90;;
17133;SDS011;8682;52.120;5.252;2023-01-31T13:33:20;1999.90;;;999.90;;
17133;SDS011;8682;52.120;5.252;2023-01-31T13:35:54;1999.90;;;999.90;;
17133;SDS011;8682;52.120;5.252;2023-01-31T13:38:22;1999.90;;;999.90;;
17133;SDS011;8682;52.120;5.252;2023-01-31T13:40:53;1999.90;;;999.90;;
17133;SDS011;8682;52.120;5.252;2023-01-31T13:43:23;1999.90;;;999.90;;
17133;SDS011;8682;52.120;5.252;2023-01-31T13:45:52;1999.90;;;999.90;;
17133;SDS011;8682;52.120;5.252;2023-01-31T13:48:23;1999.90;;;999.90;;
17133;SDS011;8682;52.120;5.252;2023-01-31T13:50:52;1999.90;;;999.90;;
17133;SDS011;8682;52.120;5.252;2023-01-31T13:53:20;1999.90;;;999.90;;
17133;SDS011;8682;52.120;5.252;2023-01-31T13:55:49;1999.90;;;999.90;;
17133;SDS011;8682;52.120;5.252;2023-01-31T13:58:18;1999.90;;;999.90;;
17133;SDS011;8682;52.120;5.252;2023-01-31T14:00:48;1999.90;;;999.90;;
17133;SDS011;8682;52.120;5.252;2023-01-31T14:03:23;1999.90;;;999.90;;
17133;SDS011;8682;52.120;5.252;2023-01-31T14:06:00;1999.90;;;999.90;;
17133;SDS011;8682;52.120;5.252;2023-01-31T14:08:28;1999.90;;;999.90;;
17133;SDS011;8682;52.120;5.252;2023-01-31T14:10:56;1999.90;;;999.90;;
17133;SDS011;8682;52.120;5.252;2023-01-31T14:13:25;1999.90;;;999.90;;
17133;SDS011;8682;52.120;5.252;2023-01-31T14:15:55;1999.90;;;999.90;;